Latest Weather Observations for Cape Moreton

IDQ60901

Issued at 1:31 pm EST Tuesday 30 May 2017 (issued every 10 minutes, with the page automatically refreshed every 10 minutes)

About weather observations | Map of Brisbane area stations | Latest observations for Brisbane area | Other Formats
Station Details ID: 040043 Name: CAPE MORETON LIGHTHOUSE Lat: -27.03 Lon: 153.47 Height: 99.9 m
Data from the previous 72 hours. | See also: Recent months at Cape Moreton
Date/Time
EST
Temp
°C
App
Temp
°C
Dew
Point
°C
Rel
Hum
%
Delta-T
°C
Wind Press
QNH
hPa
Press
MSL
hPa
Rain since
9am
mm
Dir  Spd
km/h
Gust
km/h
Spd
kts
Gust
kts
30/01:30pm 21.5 21.4 16.0 71 3.3 SSE 11 17 6 9 1020.5 1020.3 0.0
30/01:00pm 22.3 21.9 16.1 68 3.7 SE 13 19 7 10 1020.5 1020.3 0.0
30/12:30pm 22.3 21.9 16.3 69 3.7 SSE 13 19 7 10 1020.8 1020.6 0.0
30/12:00pm 22.7 22.3 16.3 67 3.9 SSE 13 17 7 9 1021.2 1021.0 0.0
30/11:30am 22.4 22.2 15.7 66 4.0 SSE 11 15 6 8 1021.7 1021.5 0.0
30/11:00am 21.3 20.7 14.7 66 3.9 SSW 11 15 6 8 1021.9 1021.7 0.0
30/10:30am 20.2 19.1 14.3 69 3.4 SW 13 17 7 9 1022.0 1021.8 0.0
30/10:00am 19.0 18.0 13.4 70 3.2 SSW 11 15 6 8 1022.1 1021.9 0.0
30/09:30am 18.3 16.4 13.0 71 3.0 SW 15 19 8 10 1022.8 1022.6 0.0
30/09:00am 17.4 14.7 11.7 69 3.1 SW 17 20 9 11 1022.3 1022.1 0.0
30/08:30am 16.7 13.9 11.2 70 3.0 SW 17 20 9 11 1022.0 1021.8 0.0
30/08:00am 16.6 13.2 10.5 67 3.2 SW 19 22 10 12 1021.9 1021.7 0.0
30/07:30am 16.4 12.5 9.3 63 3.7 SW 20 28 11 15 1022.0 1021.8 0.0
30/07:00am 16.5 12.4 8.7 60 4.0 WSW 20 26 11 14 1021.9 1021.7 0.0
30/06:30am 16.6 11.7 8.3 58 4.2 WSW 24 28 13 15 1021.6 1021.4 0.0
30/06:00am 16.3 11.4 8.3 59 4.1 SW 24 30 13 16 1020.9 1020.7 0.0
30/05:30am 16.5 11.9 8.2 58 4.2 SW 22 28 12 15 1020.7 1020.5 0.0
30/05:00am 16.6 11.7 8.3 58 4.2 SW 24 30 13 16 1020.8 1020.6 0.0
30/04:30am 16.7 12.2 8.7 59 4.1 WSW 22 28 12 15 1020.8 1020.6 0.0
30/04:00am 16.6 11.7 8.6 59 4.1 SW 24 28 13 15 1020.6 1020.4 0.0
30/03:30am 16.6 12.5 8.6 59 4.1 SW 20 26 11 14 1021.0 1020.8 0.0
30/03:00am 16.8 12.6 8.2 57 4.4 SW 20 26 11 14 1020.8 1020.6 0.0
30/02:30am 17.1 12.8 8.0 55 4.6 SW 20 28 11 15 1020.7 1020.5 0.0
30/02:00am 17.5 12.6 8.4 55 4.7 SW 24 28 13 15 1020.8 1020.6 0.0
30/01:30am 17.6 13.5 8.5 55 4.7 SW 20 28 11 15 1021.1 1020.9 0.0
30/01:00am 18.1 13.9 8.4 53 5.0 SW 20 24 11 13 1021.1 1020.9 0.0
30/12:30am 18.4 14.4 8.9 54 5.0 SW 20 26 11 14 1020.7 1020.5 0.0
30/12:00am 19.4 16.5 9.6 53 5.2 S 15 17 8 9 1021.0 1020.8 0.0
 
Date/Time
EST
Temp
°C
App
Temp
°C
Dew
Point
°C
Rel
Hum
%
Delta-T
°C
Wind Press
QNH
hPa
Press
MSL
hPa
Rain since
9am
mm
Dir  Spd
km/h
Gust
km/h
Spd
kts
Gust
kts
29/11:30pm 18.6 15.0 9.9 57 4.6 SW 19 22 10 12 1020.8 1020.6 0.0
29/11:00pm 18.8 16.5 13.0 69 3.3 SW 17 19 9 10 1020.4 1020.1 0.0
29/10:30pm 19.5 18.4 15.4 77 2.4 WSW 15 17 8 9 1020.8 1020.6 0.0
29/10:00pm 19.7 18.4 14.7 73 2.9 WSW 15 19 8 10 1020.8 1020.6 0.0
29/09:30pm 19.9 17.0 10.9 56 4.9 SW 17 19 9 10 1020.5 1020.3 0.0
29/09:00pm 20.2 19.4 12.9 63 4.1 SW 9 15 5 8 1020.6 1020.4 0.0
29/08:30pm 21.0 20.5 12.7 59 4.7 SSE 7 11 4 6 1020.4 1020.1 0.0
29/08:00pm 20.6 21.9 14.0 66 3.8 CALM 0 0 0 0 1020.2 1019.9 0.0
29/07:30pm 21.2 22.1 16.0 72 3.1 NNW 6 7 3 4 1019.8 1019.5 0.0
29/07:00pm 21.0 21.3 16.0 73 3.0 N 9 11 5 6 1019.6 1019.3 0.0
29/06:30pm 21.2 21.8 15.7 71 3.3 NNE 7 7 4 4 1019.4 1019.1 0.0
29/06:00pm 20.9 22.1 13.8 64 4.1 CALM 0 2 0 1 1018.8 1018.5 0.0
29/05:30pm 20.8 21.0 15.8 73 3.0 E 9 11 5 6 1018.4 1018.1 0.0
29/05:00pm 21.0 21.0 15.1 69 3.5 E 9 9 5 5 1018.1 1017.8 0.0
29/04:30pm 21.6 21.5 13.8 61 4.5 E 7 9 4 5 1018.0 1017.7 0.0
29/04:00pm 21.8 21.6 13.7 60 4.7 ENE 7 9 4 5 1017.9 1017.6 0.0
29/03:30pm 22.3 21.5 11.7 51 6.0 NE 7 7 4 4 1017.9 1017.6 0.0
29/03:00pm 23.0 24.2 14.8 60 4.9 E 2 6 1 3 1017.9 1017.6 0.0
29/02:30pm 23.8 25.7 16.6 64 4.4 NE 2 7 1 4 1017.8 1017.5 0.0
29/02:00pm 23.0 23.7 16.1 65 4.2 NW 7 11 4 6 1017.7 1017.4 0.0
29/01:30pm 23.3 24.1 17.3 69 3.7 NNW 9 13 5 7 1017.9 1017.6 0.0
29/01:00pm 22.4 22.4 16.2 68 3.8 NNW 11 15 6 8 1018.1 1017.8 0.0
29/12:30pm 22.5 22.5 16.3 68 3.8 NW 11 15 6 8 1018.2 1017.9 0.0
29/12:00pm 22.7 22.4 16.5 68 3.8 NW 13 17 7 9 1018.4 1018.1 0.0
29/11:30am 22.2 21.4 15.1 64 4.2 W 13 15 7 8 1018.6 1018.3 0.0
29/11:00am 22.0 21.6 16.3 70 3.5 W 13 19 7 10 1018.8 1018.5 0.0
29/10:30am 21.5 20.9 15.6 69 3.5 W 13 19 7 10 1019.2 1018.9 0.0
29/10:00am 21.1 20.1 15.6 71 3.3 W 15 19 8 10 1019.4 1019.1 0.0
29/09:30am 20.8 20.1 16.4 76 2.7 W 15 20 8 11 1019.4 1019.1 0.0
29/09:00am 20.7 20.5 16.7 78 2.4 WNW 13 19 7 10 1019.4 1019.1 0.0
29/08:30am 20.7 20.3 17.1 80 2.2 NW 15 22 8 12 1019.3 1019.0 0.0
29/08:00am 20.5 19.7 17.1 81 2.1 WNW 17 24 9 13 1019.1 1018.8 0.0
29/07:30am 20.3 19.4 17.7 85 1.6 WNW 19 28 10 15 1018.8 1018.5 0.0
29/07:00am 20.4 19.1 18.2 87 1.4 WNW 22 30 12 16 1018.6 1018.3 0.0
29/06:30am 20.0 19.1 18.1 89 1.2 WNW 20 28 11 15 1018.2 1017.9 0.0
29/06:00am 20.0 18.7 18.1 89 1.2 NW 22 30 12 16 1017.9 1017.6 0.0
29/05:30am 19.7 18.4 17.3 86 1.5 NW 20 28 11 15 1017.7 1017.4 0.0
29/05:00am 19.3 17.3 16.5 84 1.7 WNW 22 28 12 15 1017.7 1017.4 0.0
29/04:30am 19.2 17.0 17.0 87 1.3 W 24 30 13 16 1017.8 1017.5 0.0
29/04:00am 19.9 17.0 18.0 89 1.2 WNW 30 39 16 21 1018.0 1017.7 0.0
29/03:30am 20.2 18.0 17.8 86 1.5 WNW 26 35 14 19 1017.9 1017.6 0.0
29/03:00am 20.2 18.4 17.8 86 1.5 WNW 24 32 13 17 1017.8 1017.5 0.0
29/02:30am 20.6 18.4 17.8 84 1.7 WNW 26 35 14 19 1017.8 1017.5 0.0
29/02:00am 20.5 18.5 17.5 83 1.8 NW 24 32 13 17 1017.9 1017.6 0.0
29/01:30am 20.5 18.7 17.9 85 1.6 NW 24 35 13 19 1018.0 1017.7 0.0
29/01:00am 20.4 18.9 18.5 89 1.2 NW 24 32 13 17 1018.0 1017.7 0.0
29/12:30am 20.5 19.6 19.0 91 0.9 NW 22 30 12 16 1017.9 1017.6 0.0
29/12:00am 20.6 19.7 19.1 91 0.9 NW 22 30 12 16 1017.9 1017.6 0.0
 
Date/Time
EST
Temp
°C
App
Temp
°C
Dew
Point
°C
Rel
Hum
%
Delta-T
°C
Wind Press
QNH
hPa
Press
MSL
hPa
Rain since
9am
mm
Dir  Spd
km/h
Gust
km/h
Spd
kts
Gust
kts
28/11:30pm 20.8 20.5 19.5 92 0.8 NW 20 28 11 15 1018.1 1017.8 0.0
28/11:00pm 21.6 21.0 19.7 89 1.2 NW 22 33 12 18 1018.1 1017.8 0.0
28/10:30pm 21.8 19.8 18.4 81 2.1 NNW 26 33 14 18 1018.3 1018.0 0.0
28/10:00pm 21.7 19.1 17.9 79 2.4 NNW 28 39 15 21 1018.3 1018.0 0.0
28/09:30pm 21.7 18.8 17.9 79 2.4 N 30 35 16 19 1018.4 1018.1 0.0
28/09:00pm 21.7 18.3 17.7 78 2.5 N 32 39 17 21 1018.4 1018.1 0.0
28/08:30pm 21.5 18.7 17.3 77 2.6 NNW 28 37 15 20 1018.6 1018.3 0.0
28/08:00pm 21.7 19.1 17.9 79 2.4 N 28 33 15 18 1018.5 1018.2 0.0
28/07:30pm 21.5 18.8 17.5 78 2.5 N 28 33 15 18 1018.2 1017.9 0.0
28/07:00pm 21.3 19.8 17.7 80 2.2 N 22 30 12 16 1017.8 1017.5 0.0
28/06:30pm 21.0 19.7 17.2 79 2.3 N 20 28 11 15 1017.6 1017.3 0.0
28/06:00pm 20.9 19.9 17.5 81 2.1 N 19 24 10 13 1017.2 1016.9 0.0
28/05:30pm 20.8 19.6 17.0 79 2.3 N 19 24 10 13 1016.8 1016.5 0.0
28/05:00pm 20.8 19.5 16.8 78 2.4 N 19 24 10 13 1016.7 1016.4 0.0
28/04:30pm 20.9 19.6 16.7 77 2.6 NNE 19 22 10 12 1016.5 1016.2 0.0
28/04:00pm 20.8 19.8 16.6 77 2.5 NNE 17 22 9 12 1016.5 1016.2 0.0
28/03:30pm 21.4 20.3 16.4 73 3.0 NNE 17 20 9 11 1016.5 1016.2 0.0
28/03:00pm 21.9 21.4 16.8 73 3.1 NNE 15 22 8 12 1016.6 1016.3 0.0
28/02:30pm 22.5 22.2 17.4 73 3.2 N 15 20 8 11 1016.8 1016.5 0.0
28/02:00pm 22.2 22.0 17.6 75 2.9 N 15 19 8 10 1016.9 1016.6 0.0
28/01:30pm 22.0 22.3 17.8 77 2.6 N 13 19 7 10 1017.2 1016.9 0.0
28/01:00pm 21.8 21.7 17.0 74 2.9 NNW 13 17 7 9 1017.5 1017.2 0.0
28/12:30pm 21.6 21.7 16.6 73 3.0 NW 11 17 6 9 1017.7 1017.4 0.0
28/12:00pm 21.9 21.9 16.2 70 3.5 NW 11 17 6 9 1018.0 1017.7 0.0
28/11:30am 21.6 21.4 16.6 73 3.0 W 13 20 7 11 1018.4 1018.1 0.0
28/11:00am 21.3 21.3 17.3 78 2.5 W 13 19 7 10 1018.7 1018.4 0.0
28/10:30am 21.5 21.8 16.9 75 2.8 NNW 11 15 6 8 1019.0 1018.7 0.0
28/10:00am 21.7 22.7 16.9 74 2.9 NNW 7 13 4 7 1019.2 1018.9 0.0
28/09:30am 21.4 22.6 18.2 82 2.0 W 9 13 5 7 1019.5 1019.2 0.0
28/09:00am 20.2 20.9 18.0 87 1.4 W 11 13 6 7 1019.5 1019.2 0.0
28/08:30am 19.5 19.8 18.0 91 0.9 WSW 13 15 7 8 1019.4 1019.1 0.0
28/08:00am 18.7 18.9 17.7 94 0.6 W 13 15 7 8 1019.3 1019.0 0.0
28/07:30am 18.1 17.8 17.3 95 0.5 W 15 17 8 9 1019.2 1018.9 0.0
28/07:00am 17.9 17.6 17.3 96 0.4 W 15 17 8 9 1019.0 1018.7 0.0
28/06:30am 17.6 17.3 17.4 99 0.1 WSW 15 15 8 8 1018.9 1018.6 0.0
28/06:00am 17.6 16.9 17.4 99 0.1 WSW 17 19 9 10 1018.7 1018.4 0.0
28/05:30am 17.8 17.6 17.6 99 0.1 WSW 15 17 8 9 1018.6 1018.3 0.0
28/05:00am 17.8 17.6 17.6 99 0.1 WSW 15 17 8 9 1018.4 1018.1 0.0
28/04:30am 17.8 17.2 17.6 99 0.1 W 17 17 9 9 1018.3 1018.0 0.0
28/04:00am 17.8 17.2 17.6 99 0.1 W 17 17 9 9 1018.4 1018.1 0.0
28/03:30am 17.8 17.2 17.6 99 0.1 W 17 19 9 10 1018.5 1018.2 0.0
28/03:00am 18.2 18.0 17.7 97 0.3 W 15 17 8 9 1018.6 1018.3 0.0
28/02:30am 19.0 18.9 17.0 88 1.2 W 13 17 7 9 1018.9 1018.6 0.0
28/02:00am 19.7 19.5 15.8 78 2.3 NNW 11 15 6 8 1019.2 1018.9 0.0
28/01:30am 19.9 20.2 16.0 78 2.3 N 9 15 5 8 1019.4 1019.1 0.0
28/01:00am 19.9 20.1 15.7 77 2.5 N 9 13 5 7 1019.6 1019.3 0.0
28/12:30am 19.9 19.8 16.0 78 2.3 NNE 11 13 6 7 1019.7 1019.4 0.0
28/12:00am 19.7 20.0 16.9 84 1.7 N 11 15 6 8 1019.9 1019.6 0.0
 
Date/Time
EST
Temp
°C
App
Temp
°C
Dew
Point
°C
Rel
Hum
%
Delta-T
°C
Wind Press
QNH
hPa
Press
MSL
hPa
Rain since
9am
mm
Dir  Spd
km/h
Gust
km/h
Spd
kts
Gust
kts
27/11:30pm 19.7 20.0 16.9 84 1.7 NNE 11 15 6 8 1020.0 1019.7 0.0
27/11:00pm 19.8 19.4 17.2 85 1.6 NE 15 19 8 10 1020.3 1020.0 0.0
27/10:30pm 19.6 19.4 16.6 83 1.8 NNE 13 17 7 9 1020.4 1020.1 0.0
27/10:00pm 19.7 19.6 16.9 84 1.7 NNE 13 15 7 8 1020.7 1020.5 0.0
27/09:30pm 19.9 19.3 16.7 82 1.9 NE 15 19 8 10 1020.7 1020.5 0.0
27/09:00pm 20.0 18.3 16.2 79 2.3 NE 20 26 11 14 1020.6 1020.4 0.0
27/08:30pm 19.9 18.7 16.0 78 2.3 ENE 17 22 9 12 1020.7 1020.5 0.0
27/08:00pm 20.2 19.1 16.4 79 2.3 ENE 17 24 9 13 1020.6 1020.4 0.0
27/07:30pm 19.9 18.8 16.3 80 2.2 ENE 17 20 9 11 1020.6 1020.4 0.0
27/07:00pm 20.2 17.6 16.8 81 2.1 ENE 26 32 14 17 1020.4 1020.1 0.0
27/06:30pm 19.7 18.6 16.3 81 2.0 E 17 22 9 12 1020.0 1019.7 0.0
27/06:00pm 19.8 19.1 16.3 80 2.1 E 15 19 8 10 1019.8 1019.5 0.0
27/05:30pm 19.7 19.3 16.3 81 2.0 E 13 19 7 10 1019.5 1019.2 0.0
27/05:00pm 19.9 19.4 16.0 78 2.3 E 13 17 7 9 1019.3 1019.0 0.0
27/04:30pm 20.6 20.2 16.2 76 2.7 ESE 13 17 7 9 1019.2 1018.9 0.0
27/04:00pm 20.5 19.9 15.7 74 2.9 ESE 13 17 7 9 1019.2 1018.9 0.0
27/03:30pm 20.8 21.0 15.8 73 3.0 ESE 9 13 5 7 1019.0 1018.7 0.0
27/03:00pm 21.0 21.4 16.2 74 2.9 ESE 9 13 5 7 1019.0 1018.7 0.0
27/02:30pm 21.2 21.1 16.0 72 3.1 ESE 11 13 6 7 1019.1 1018.8 0.0
27/02:00pm 21.5 20.5 16.5 73 3.0 ESE 17 22 9 12 1019.2 1018.9 0.0

Latest Capital City Observations: Canberra | Sydney | Melbourne | Brisbane | Adelaide | Perth | Hobart | Darwin

Other Formats:

Comma delimited format used in spreadsheet applications
http://www.bom.gov.au/fwo/IDQ60901/IDQ60901.94594.axf

JavaScript Object Notation format (JSON) in row-major order
http://www.bom.gov.au/fwo/IDQ60901/IDQ60901.94594.json